Time;durP1;ratioP1;P1;durP2;ratioP2;P2;SDS_P1;SDS_P2;PMS_P1;PMS_P2;Temp;Humidity;BMP_temperature;BMP_pressure;BME280_temperature;BME280_humidity;BME280_pressure;Samples;Min_cycle;Max_cycle;Signal;HPM_P1;HPM_P2
2023/01/16 00:00:04;;;;;;;0.75;0.40;;;6.20;93.10;;;;;;5061317;28;20036;-74
2023/01/16 00:02:30;;;;;;;0.38;0.20;;;6.10;92.70;;;;;;5077912;28;20441;-74
2023/01/16 00:04:56;;;;;;;0.73;0.40;;;6.10;92.40;;;;;;5077974;28;20095;-75
2023/01/16 00:07:21;;;;;;;0.70;0.32;;;6.20;92.40;;;;;;5077941;28;20054;-74
2023/01/16 00:09:47;;;;;;;2.30;0.80;;;6.20;92.40;;;;;;5061026;28;20032;-74
2023/01/16 00:12:12;;;;;;;0.52;0.30;;;6.20;92.50;;;;;;5077956;28;20028;-74
2023/01/16 00:14:38;;;;;;;2.35;0.60;;;6.10;92.70;;;;;;5044480;28;20028;-74
2023/01/16 00:17:04;;;;;;;1.55;0.70;;;6.10;92.90;;;;;;5095430;28;20072;-74
2023/01/16 00:19:29;;;;;;;0.88;0.52;;;6.10;93.00;;;;;;5077143;28;20099;-74
2023/01/16 00:21:55;;;;;;;2.72;0.80;;;6.10;93.10;;;;;;5060741;28;20060;-74
2023/01/16 00:24:20;;;;;;;0.75;0.50;;;6.10;93.20;;;;;;5061003;28;20032;-74
2023/01/16 00:26:49;;;;;;;1.13;0.50;;;6.10;93.20;;;;;;5095324;28;20088;-74
2023/01/16 00:29:15;;;;;;;1.40;0.70;;;6.10;93.40;;;;;;5077545;28;20024;-74
2023/01/16 00:31:41;;;;;;;1.00;0.60;;;6.00;93.50;;;;;;5060741;28;20070;-74
2023/01/16 00:34:06;;;;;;;1.95;0.77;;;6.10;93.60;;;;;;5060579;28;20054;-74
2023/01/16 00:36:32;;;;;;;1.85;0.60;;;6.10;93.50;;;;;;5077542;28;20028;-74
2023/01/16 00:38:57;;;;;;;2.47;0.80;;;6.10;93.20;;;;;;5095107;28;20038;-74
2023/01/16 00:41:23;;;;;;;0.60;0.60;;;6.10;93.10;;;;;;5077486;28;20063;-74
2023/01/16 00:43:49;;;;;;;2.67;1.23;;;6.10;92.90;;;;;;5060604;28;20035;-74
2023/01/16 00:46:14;;;;;;;1.17;0.93;;;6.10;92.80;;;;;;5060478;28;20059;-74
2023/01/16 00:48:40;;;;;;;1.73;0.70;;;6.20;92.80;;;;;;5077126;28;20052;-75
2023/01/16 00:51:05;;;;;;;1.27;0.68;;;6.10;92.60;;;;;;5060355;28;20043;-74
2023/01/16 00:53:31;;;;;;;1.35;0.70;;;6.10;92.50;;;;;;5094672;28;20028;-74
2023/01/16 00:55:57;;;;;;;1.63;0.82;;;6.10;92.60;;;;;;5076976;28;20024;-74
2023/01/16 00:58:22;;;;;;;3.85;0.80;;;6.10;92.50;;;;;;5094564;28;20090;-74
2023/01/16 01:00:49;;;;;;;2.55;1.02;;;6.10;92.40;;;;;;5076885;28;20028;-74
2023/01/16 01:03:15;;;;;;;0.85;0.70;;;6.10;92.40;;;;;;5076960;28;20025;-74
2023/01/16 01:05:41;;;;;;;3.15;0.80;;;6.00;92.50;;;;;;5076883;28;20074;-75
2023/01/16 01:08:06;;;;;;;3.13;1.00;;;6.00;92.60;;;;;;5059904;28;20054;-74
2023/01/16 01:10:35;;;;;;;1.65;0.82;;;6.00;92.50;;;;;;5076478;28;20027;-74
2023/01/16 01:13:01;;;;;;;4.18;0.80;;;5.90;92.60;;;;;;5076537;28;20091;-74
2023/01/16 01:15:26;;;;;;;1.67;0.63;;;5.90;92.60;;;;;;5059853;28;20029;-74
2023/01/16 01:17:52;;;;;;;2.40;0.68;;;5.90;92.50;;;;;;5094215;28;20021;-74
2023/01/16 01:20:17;;;;;;;1.15;0.88;;;5.90;92.50;;;;;;5043342;28;20119;-74
2023/01/16 01:22:45;;;;;;;2.42;0.68;;;5.90;92.60;;;;;;5038894;28;20083;-74
2023/01/16 01:25:11;;;;;;;3.00;0.75;;;5.80;92.40;;;;;;5053104;28;20030;-74
2023/01/16 01:27:36;;;;;;;3.70;0.65;;;5.80;92.40;;;;;;5053022;28;20060;-74
2023/01/16 01:30:03;;;;;;;3.90;0.88;;;5.80;92.50;;;;;;5036366;28;20053;-74
2023/01/16 01:32:28;;;;;;;1.38;0.50;;;5.80;92.60;;;;;;5052191;28;20018;-74
2023/01/16 01:34:54;;;;;;;2.63;0.80;;;5.70;92.50;;;;;;5052997;28;20036;-74
2023/01/16 01:37:19;;;;;;;2.63;0.60;;;5.70;92.50;;;;;;5052773;28;20025;-75
2023/01/16 01:39:45;;;;;;;1.58;0.95;;;5.70;92.50;;;;;;5052841;28;20029;-74
2023/01/16 01:45:18;;;;;;;2.42;1.15;;;5.60;92.50;;;;;;5053947;28;20040;-74
2023/01/16 01:48:08;;;;;;;1.77;0.57;;;5.60;92.30;;;;;;5046217;28;20057;-74
2023/01/16 01:50:41;;;;;;;1.77;0.80;;;5.50;92.40;;;;;;5052744;28;20356;-74
2023/01/16 01:53:14;;;;;;;1.83;0.75;;;5.50;92.60;;;;;;5053635;28;20077;-74
2023/01/16 01:55:44;;;;;;;5.40;1.20;;;5.50;92.50;;;;;;5053535;28;20025;-74
2023/01/16 01:58:15;;;;;;;3.10;1.05;;;5.50;92.40;;;;;;5053502;28;20018;-74
2023/01/16 02:00:40;;;;;;;3.35;1.27;;;5.50;92.20;;;;;;5052588;28;20029;-74
2023/01/16 02:03:14;;;;;;;4.63;1.50;;;5.50;92.10;;;;;;5053414;28;20055;-74
2023/01/16 02:05:44;;;;;;;4.28;2.05;;;5.40;92.10;;;;;;5052465;28;20024;-74
2023/01/16 02:08:13;;;;;;;2.95;1.50;;;5.40;92.20;;;;;;5053297;28;20028;-74
2023/01/16 02:10:41;;;;;;;4.03;1.58;;;5.40;92.20;;;;;;5052228;28;20021;-74
2023/01/16 02:13:07;;;;;;;4.03;2.05;;;5.40;92.10;;;;;;5052245;28;20098;-74
2023/01/16 02:15:33;;;;;;;6.00;1.20;;;5.40;92.00;;;;;;5035767;28;20021;-74
2023/01/16 02:21:19;;;;;;;6.60;1.10;;;5.30;92.00;;;;;;5054595;28;20068;-75
2023/01/16 02:24:16;;;;;;;2.05;0.70;;;5.30;92.20;;;;;;5093455;28;20140;-74
2023/01/16 02:26:54;;;;;;;3.60;1.00;;;5.20;92.20;;;;;;5075373;28;20039;-74
2023/01/16 02:29:58;;;;;;;5.85;1.63;;;5.20;92.10;;;;;;5075500;28;20040;-74
2023/01/16 02:32:54;;;;;;;2.88;1.27;;;5.20;92.20;;;;;;5093356;28;20032;-74
2023/01/16 02:35:32;;;;;;;4.18;1.02;;;5.20;92.00;;;;;;5075427;28;20028;-74
2023/01/16 02:38:29;;;;;;;2.45;0.60;;;5.10;92.20;;;;;;5093148;28;20035;-74
2023/01/16 02:41:08;;;;;;;1.88;0.65;;;5.10;92.30;;;;;;5074400;28;20055;-74
2023/01/16 02:43:44;;;;;;;3.22;0.70;;;5.10;92.30;;;;;;5077920;28;20043;-74
2023/01/16 02:46:52;;;;;;;0.65;0.60;;;5.10;92.20;;;;;;5079413;28;20040;-74
2023/01/16 02:49:29;;;;;;;2.90;0.60;;;5.10;92.20;;;;;;5079344;28;20111;-74
2023/01/16 02:52:03;;;;;;;4.05;0.77;;;5.10;92.10;;;;;;5097028;28;20024;-74
2023/01/16 02:54:54;;;;;;;0.63;0.32;;;5.10;92.20;;;;;;5096994;28;20024;-74
2023/01/16 02:57:23;;;;;;;2.45;0.80;;;5.10;92.10;;;;;;5097091;28;20021;-74
2023/01/16 02:59:50;;;;;;;3.40;1.00;;;5.10;92.20;;;;;;5096833;28;20017;-74
2023/01/16 03:02:15;;;;;;;5.45;1.10;;;5.10;92.10;;;;;;5079038;28;20037;-74
2023/01/16 03:04:50;;;;;;;2.53;0.50;;;5.10;92.10;;;;;;5062399;28;20097;-75
2023/01/16 03:07:31;;;;;;;2.60;0.60;;;5.20;92.10;;;;;;5096725;28;20183;-74
2023/01/16 03:10:18;;;;;;;1.98;0.57;;;5.20;92.00;;;;;;5096549;28;20021;-75
2023/01/16 03:12:58;;;;;;;0.73;0.45;;;5.30;92.00;;;;;;5078984;28;20020;-74
2023/01/16 03:15:36;;;;;;;1.40;0.63;;;5.40;91.80;;;;;;5096735;28;20062;-74
2023/01/16 03:18:30;;;;;;;1.05;0.57;;;5.40;91.70;;;;;;5096565;28;20021;-75
2023/01/16 03:21:20;;;;;;;1.88;0.60;;;5.40;91.60;;;;;;5086745;28;20045;-75
2023/01/16 03:23:54;;;;;;;1.63;0.60;;;5.40;91.40;;;;;;5096440;28;20028;-74
2023/01/16 03:26:31;;;;;;;1.98;0.50;;;5.40;91.30;;;;;;5096357;28;20024;-74
2023/01/16 03:29:18;;;;;;;4.60;0.60;;;5.40;91.40;;;;;;5096290;28;20036;-74
2023/01/16 03:31:56;;;;;;;1.98;0.43;;;5.40;91.30;;;;;;5078556;28;20029;-74
2023/01/16 03:34:48;;;;;;;1.98;0.70;;;5.40;91.40;;;;;;5078474;28;20044;-74
2023/01/16 03:37:44;;;;;;;2.65;0.80;;;5.40;91.20;;;;;;5078483;28;20017;-74
2023/01/16 03:40:13;;;;;;;4.13;0.68;;;5.40;91.20;;;;;;5094009;28;20071;-74
2023/01/16 03:42:53;;;;;;;4.18;0.70;;;5.30;91.20;;;;;;5096034;28;20020;-74
2023/01/16 03:45:38;;;;;;;1.42;0.50;;;5.30;91.30;;;;;;5078244;28;20028;-74
2023/01/16 03:48:19;;;;;;;1.95;0.70;;;5.20;91.40;;;;;;5078244;28;20024;-74
2023/01/16 03:50:51;;;;;;;1.40;0.45;;;5.20;91.50;;;;;;5078126;28;20036;-74
2023/01/16 03:53:23;;;;;;;3.03;0.80;;;5.20;91.60;;;;;;5078134;28;20025;-74
2023/01/16 03:56:13;;;;;;;4.10;0.90;;;5.30;91.50;;;;;;5095007;28;20035;-74
2023/01/16 03:58:42;;;;;;;1.52;0.90;;;5.30;91.50;;;;;;5095932;28;20334;-74
2023/01/16 04:01:22;;;;;;;4.70;1.10;;;5.30;91.50;;;;;;5095717;28;20020;-74
2023/01/16 04:03:53;;;;;;;4.13;1.23;;;5.20;91.60;;;;;;5095693;28;20025;-74
2023/01/16 04:06:44;;;;;;;4.90;1.15;;;5.20;91.70;;;;;;5078136;28;20028;-74
2023/01/16 04:09:17;;;;;;;6.28;1.40;;;5.20;91.70;;;;;;5077741;28;20032;-74
2023/01/16 04:11:45;;;;;;;5.75;1.50;;;5.20;91.70;;;;;;5095504;28;20028;-75
2023/01/16 04:14:13;;;;;;;3.70;1.60;;;5.30;91.80;;;;;;5077705;28;20015;-74
2023/01/16 04:16:40;;;;;;;2.60;1.23;;;5.30;91.70;;;;;;5077692;28;20096;-74
2023/01/16 04:19:06;;;;;;;2.95;0.80;;;5.30;91.70;;;;;;5077686;28;20422;-74
2023/01/16 04:21:32;;;;;;;5.05;1.38;;;5.30;91.80;;;;;;5095123;28;20090;-74
2023/01/16 04:23:59;;;;;;;3.60;0.90;;;5.20;92.00;;;;;;5095261;28;20021;-74
2023/01/16 04:26:25;;;;;;;5.22;1.65;;;5.20;92.10;;;;;;5095235;28;20035;-74
2023/01/16 04:28:54;;;;;;;5.55;1.30;;;5.20;92.20;;;;;;5077453;28;20024;-74
2023/01/16 04:31:23;;;;;;;2.70;1.30;;;5.20;92.20;;;;;;5078034;28;20017;-74
2023/01/16 04:33:49;;;;;;;3.83;1.25;;;5.30;92.30;;;;;;5078023;28;20028;-74
2023/01/16 04:36:15;;;;;;;2.80;1.02;;;5.30;92.20;;;;;;5077365;28;20028;-74
2023/01/16 04:38:40;;;;;;;5.60;1.33;;;5.20;92.30;;;;;;5077519;28;20039;-75
2023/01/16 04:41:06;;;;;;;4.05;0.75;;;5.20;92.30;;;;;;5077266;28;20036;-74
2023/01/16 04:43:32;;;;;;;2.67;0.65;;;5.20;92.40;;;;;;5094898;28;20028;-75
2023/01/16 04:45:57;;;;;;;1.40;0.90;;;5.20;92.50;;;;;;5060497;28;20044;-74
2023/01/16 04:48:23;;;;;;;1.75;0.80;;;5.20;92.60;;;;;;5060538;28;20060;-74
2023/01/16 04:50:49;;;;;;;3.08;1.10;;;5.20;92.70;;;;;;5076955;28;20028;-74
2023/01/16 04:53:15;;;;;;;10.07;1.17;;;5.20;92.80;;;;;;5094674;28;20015;-74
2023/01/16 04:55:41;;;;;;;1.77;0.68;;;5.20;93.00;;;;;;5094630;28;20024;-74
2023/01/16 04:58:06;;;;;;;2.08;0.77;;;5.10;93.10;;;;;;5060298;28;20082;-74
2023/01/16 05:00:32;;;;;;;5.72;0.95;;;5.20;93.20;;;;;;5060160;28;20021;-74
2023/01/16 05:02:58;;;;;;;3.90;1.10;;;5.20;93.30;;;;;;5094503;28;20032;-74
2023/01/16 05:05:24;;;;;;;2.45;0.75;;;5.10;93.30;;;;;;5060162;28;20096;-74
2023/01/16 05:08:15;;;;;;;3.88;0.90;;;5.20;93.20;;;;;;5076642;28;20039;-74
2023/01/16 05:10:35;;;;;;;1.67;0.93;;;5.20;93.20;;;;;;5094168;28;20040;-74
2023/01/16 05:13:01;;;;;;;5.05;1.08;;;5.30;93.10;;;;;;5076951;28;20025;-74
2023/01/16 05:15:26;;;;;;;1.52;0.70;;;5.30;93.10;;;;;;5059995;28;20033;-74
2023/01/16 05:17:53;;;;;;;1.98;0.88;;;5.30;93.10;;;;;;5076582;28;20040;-74
2023/01/16 05:20:19;;;;;;;1.25;0.68;;;5.20;93.20;;;;;;5094131;28;20084;-74
2023/01/16 05:22:44;;;;;;;2.55;1.00;;;5.30;93.30;;;;;;5059722;28;20075;-74
2023/01/16 05:25:10;;;;;;;1.17;0.60;;;5.30;93.20;;;;;;5059666;28;20052;-74
2023/01/16 05:27:35;;;;;;;2.45;1.00;;;5.40;93.00;;;;;;5076431;28;20032;-74
2023/01/16 05:30:01;;;;;;;1.85;0.98;;;5.40;93.00;;;;;;5076225;28;20052;-74
2023/01/16 05:32:27;;;;;;;2.03;1.08;;;5.40;92.90;;;;;;5076248;28;20027;-74
2023/01/16 05:34:52;;;;;;;1.45;0.70;;;5.40;93.00;;;;;;5076255;28;20028;-74
2023/01/16 05:37:18;;;;;;;3.72;1.08;;;5.40;93.00;;;;;;5076206;28;20017;-74
2023/01/16 05:39:44;;;;;;;2.13;0.93;;;5.40;93.10;;;;;;5059475;28;20393;-74
2023/01/16 05:42:20;;;;;;;3.70;0.75;;;5.40;93.00;;;;;;5076342;28;20013;-74
2023/01/16 05:44:48;;;;;;;1.80;0.82;;;5.40;93.10;;;;;;5045898;28;20096;-74
2023/01/16 05:47:14;;;;;;;2.60;0.73;;;5.30;93.20;;;;;;5076213;28;20021;-74
2023/01/16 05:49:40;;;;;;;3.33;0.55;;;5.40;93.10;;;;;;5075960;28;20082;-74
2023/01/16 05:52:06;;;;;;;2.42;0.82;;;5.40;93.20;;;;;;5093665;28;20032;-74
2023/01/16 05:54:31;;;;;;;2.75;0.80;;;5.40;93.20;;;;;;5076047;28;20029;-75
2023/01/16 05:56:57;;;;;;;2.72;0.70;;;5.40;93.30;;;;;;5042655;28;20020;-74
2023/01/16 05:59:23;;;;;;;2.25;0.70;;;5.40;93.30;;;;;;5093498;28;20021;-74
2023/01/16 06:01:48;;;;;;;1.38;0.90;;;5.40;93.20;;;;;;5075902;28;20111;-74
2023/01/16 06:04:14;;;;;;;2.70;0.52;;;5.50;93.10;;;;;;5059122;28;20020;-74
2023/01/16 06:06:39;;;;;;;0.63;0.57;;;5.40;93.10;;;;;;5093422;28;20033;-74
2023/01/16 06:09:05;;;;;;;1.55;0.88;;;5.40;93.10;;;;;;5059066;28;20192;-74
2023/01/16 06:11:31;;;;;;;3.78;0.93;;;5.50;93.10;;;;;;5075698;28;20389;-74
2023/01/16 06:13:56;;;;;;;0.70;0.50;;;5.50;92.90;;;;;;5075687;28;20054;-74
2023/01/16 06:16:25;;;;;;;2.17;0.82;;;5.50;92.80;;;;;;5042561;28;20060;-74
2023/01/16 06:18:50;;;;;;;1.75;0.80;;;5.50;92.70;;;;;;5092932;28;20024;-74
2023/01/16 06:21:16;;;;;;;1.92;0.60;;;5.50;92.50;;;;;;5067082;28;20057;-75
2023/01/16 06:23:41;;;;;;;0.90;0.43;;;5.50;92.50;;;;;;5053248;28;20033;-74
2023/01/16 06:26:09;;;;;;;2.95;1.17;;;5.50;92.40;;;;;;5052200;28;20034;-74
2023/01/16 06:28:36;;;;;;;0.82;0.43;;;5.50;92.60;;;;;;5052221;28;20021;-74
2023/01/16 06:31:02;;;;;;;1.20;0.60;;;5.60;92.30;;;;;;5052113;28;20052;-74
2023/01/16 06:33:28;;;;;;;4.07;1.00;;;5.60;92.10;;;;;;5053052;28;20013;-74
2023/01/16 06:35:54;;;;;;;3.60;1.10;;;5.60;92.30;;;;;;5035638;28;20080;-74
2023/01/16 06:38:19;;;;;;;3.13;0.88;;;5.60;92.30;;;;;;5052044;28;20052;-74
2023/01/16 06:40:45;;;;;;;2.60;0.70;;;5.70;92.20;;;;;;5052112;28;20049;-74
2023/01/16 06:43:11;;;;;;;2.05;0.77;;;5.60;92.40;;;;;;5051988;28;20395;-74
2023/01/16 06:45:37;;;;;;;0.43;0.20;;;5.60;92.50;;;;;;5051937;28;20033;-74
2023/01/16 06:48:03;;;;;;;3.03;0.40;;;5.50;92.60;;;;;;5051936;28;20035;-74
2023/01/16 06:50:28;;;;;;;2.92;0.57;;;5.60;92.90;;;;;;5052865;28;20060;-74
2023/01/16 06:52:54;;;;;;;0.65;0.28;;;5.60;93.10;;;;;;5052897;28;20566;-74
2023/01/16 06:55:20;;;;;;;1.40;0.65;;;5.60;93.40;;;;;;5051978;28;20085;-74
2023/01/16 06:57:45;;;;;;;2.25;0.57;;;5.60;93.60;;;;;;5052868;28;20022;-74
2023/01/16 07:00:12;;;;;;;1.42;0.50;;;5.50;93.60;;;;;;5051932;28;20033;-74
2023/01/16 07:02:39;;;;;;;0.65;0.30;;;5.50;93.70;;;;;;5052932;28;20081;-74
2023/01/16 07:05:09;;;;;;;2.15;0.80;;;5.50;94.10;;;;;;5051746;28;20048;-74
2023/01/16 07:07:35;;;;;;;1.75;0.55;;;5.50;94.10;;;;;;5052735;28;20025;-74
2023/01/16 07:10:02;;;;;;;1.65;1.05;;;5.50;94.20;;;;;;5035185;28;20032;-74
2023/01/16 07:12:28;;;;;;;1.15;0.57;;;5.50;94.40;;;;;;5051716;28;20046;-74
2023/01/16 07:23:31;;;;;;;2.95;0.82;;;5.60;94.50;;;;;;5051857;28;20533;-74
2023/01/16 07:26:00;;;;;;;3.55;0.60;;;5.60;94.60;;;;;;5052749;28;20076;-74
2023/01/16 07:28:26;;;;;;;5.15;1.38;;;5.60;94.60;;;;;;5051608;28;20197;-74
2023/01/16 07:30:52;;;;;;;5.60;0.98;;;5.70;94.50;;;;;;5055253;28;20056;-74
2023/01/16 07:33:17;;;;;;;4.30;0.85;;;5.60;94.70;;;;;;5038638;28;20022;-74
2023/01/16 07:35:45;;;;;;;3.20;0.80;;;5.60;94.70;;;;;;5055214;28;20036;-74
2023/01/16 07:38:11;;;;;;;2.15;0.63;;;5.60;94.60;;;;;;5038845;28;20014;-74
2023/01/16 07:40:36;;;;;;;2.25;0.80;;;5.70;94.70;;;;;;5056068;28;20503;-74
2023/01/16 07:43:02;;;;;;;3.50;1.13;;;5.70;94.70;;;;;;5038486;28;20475;-74
2023/01/16 07:45:27;;;;;;;0.93;0.40;;;5.70;94.70;;;;;;5038467;28;20033;-74
2023/01/16 07:47:53;;;;;;;1.35;0.75;;;5.70;94.80;;;;;;5055158;28;20037;-74
2023/01/16 07:50:19;;;;;;;4.30;1.02;;;5.60;95.00;;;;;;5054809;28;20037;-74
2023/01/16 07:52:45;;;;;;;3.70;0.82;;;5.70;95.10;;;;;;5054844;28;20036;-74
2023/01/16 07:55:11;;;;;;;7.90;0.93;;;5.70;95.00;;;;;;5054799;28;20013;-74
2023/01/16 07:57:38;;;;;;;1.15;0.60;;;5.70;95.20;;;;;;5054819;28;20033;-74
2023/01/16 08:00:10;;;;;;;2.03;0.88;;;5.70;95.00;;;;;;5054780;28;20053;-74
2023/01/16 08:02:36;;;;;;;2.97;0.98;;;5.70;95.20;;;;;;5055752;28;20089;-74
2023/01/16 08:05:01;;;;;;;1.52;0.90;;;5.70;95.00;;;;;;5054683;28;20030;-74
2023/01/16 08:07:27;;;;;;;2.67;0.60;;;5.80;95.00;;;;;;5055546;28;20049;-74
2023/01/16 08:09:53;;;;;;;1.98;0.40;;;5.80;94.80;;;;;;5054305;28;20033;-74
2023/01/16 08:12:18;;;;;;;4.40;0.45;;;5.80;95.00;;;;;;5054580;28;20025;-74
2023/01/16 08:14:44;;;;;;;0.73;0.35;;;5.80;94.90;;;;;;5054538;28;20081;-74
2023/01/16 08:17:09;;;;;;;1.63;0.63;;;5.70;94.90;;;;;;5054462;28;20036;-74
2023/01/16 08:19:35;;;;;;;1.60;0.77;;;5.80;94.80;;;;;;5055322;28;20017;-74
2023/01/16 08:22:02;;;;;;;2.55;0.85;;;5.80;94.80;;;;;;5021216;28;20064;-74
2023/01/16 08:24:28;;;;;;;3.08;0.82;;;5.80;95.00;;;;;;5054338;28;20101;-74
2023/01/16 08:26:53;;;;;;;1.38;0.40;;;5.80;95.00;;;;;;5055205;28;20033;-73
2023/01/16 08:29:19;;;;;;;1.40;0.70;;;5.80;94.90;;;;;;5037691;28;20045;-74
2023/01/16 08:31:45;;;;;;;4.25;0.68;;;5.90;94.80;;;;;;5037517;28;20051;-74
2023/01/16 08:34:11;;;;;;;1.95;0.88;;;5.80;94.80;;;;;;5055048;28;20022;-74
2023/01/16 08:36:36;;;;;;;1.50;0.80;;;5.80;94.70;;;;;;5054961;28;20065;-74
2023/01/16 08:39:02;;;;;;;1.73;0.88;;;5.80;94.80;;;;;;5054041;28;20033;-74
2023/01/16 08:52:34;;;;;;;1.33;0.85;;;5.80;95.10;;;;;;5054887;28;20104;-74
2023/01/16 08:55:00;;;;;;;0.52;0.40;;;5.80;95.10;;;;;;5053668;28;20033;-74
2023/01/16 08:57:27;;;;;;;3.83;0.95;;;5.80;95.20;;;;;;5053682;28;20080;-74
2023/01/16 08:59:54;;;;;;;1.67;0.43;;;5.90;95.10;;;;;;5053593;28;20105;-74
2023/01/16 09:02:20;;;;;;;1.27;0.70;;;5.80;95.30;;;;;;5054530;28;20032;-74
2023/01/16 09:04:47;;;;;;;1.67;0.93;;;5.80;95.40;;;;;;5053523;28;20033;-74
2023/01/16 09:07:13;;;;;;;1.17;0.40;;;5.80;95.40;;;;;;5037257;28;20025;-74
2023/01/16 09:09:40;;;;;;;4.35;0.90;;;5.80;95.50;;;;;;5054224;28;20106;-74
2023/01/16 09:14:55;;;;;;;4.38;1.05;;;5.80;95.20;;;;;;5054337;28;20052;-74
2023/01/16 09:17:20;;;;;;;2.55;0.82;;;5.80;95.30;;;;;;5053160;28;20025;-74
2023/01/16 09:19:46;;;;;;;1.02;0.43;;;5.80;95.20;;;;;;5053217;28;20045;-75
2023/01/16 09:22:12;;;;;;;0.75;0.50;;;5.80;95.10;;;;;;5079404;28;20048;-74
2023/01/16 09:24:38;;;;;;;1.13;0.75;;;5.80;95.20;;;;;;5059832;28;20051;-74
2023/01/16 09:27:05;;;;;;;2.40;0.90;;;5.90;95.10;;;;;;5059895;28;20017;-74
2023/01/16 09:29:31;;;;;;;18.08;1.20;;;5.90;95.20;;;;;;5043184;28;20096;-74
2023/01/16 09:31:57;;;;;;;1.45;0.75;;;5.80;95.30;;;;;;5093948;28;20039;-74
2023/01/16 09:34:23;;;;;;;2.30;0.90;;;5.80;95.30;;;;;;5076151;28;20027;-74
2023/01/16 09:36:49;;;;;;;2.20;0.55;;;5.90;95.30;;;;;;5076150;28;20103;-74
2023/01/16 09:39:14;;;;;;;1.55;0.63;;;5.90;95.10;;;;;;5076124;28;20031;-74
2023/01/16 09:44:47;;;;;;;0.57;0.38;;;5.90;94.70;;;;;;5094027;28;20027;-74
2023/01/16 09:47:13;;;;;;;2.10;0.77;;;5.90;94.90;;;;;;5093693;28;20029;-74
2023/01/16 09:49:53;;;;;;;1.52;0.47;;;5.90;94.70;;;;;;5093729;28;20088;-74
2023/01/16 10:00:51;;;;;;;0.88;0.22;;;5.80;95.10;;;;;;5093815;28;20032;-74
2023/01/16 10:03:16;;;;;;;1.67;0.45;;;5.70;95.00;;;;;;5093480;28;20039;-74
2023/01/16 10:05:55;;;;;;;1.25;0.32;;;5.80;94.50;;;;;;5093498;28;20032;-74
2023/01/16 10:08:28;;;;;;;1.80;0.40;;;5.80;94.80;;;;;;5075631;28;20055;-74
2023/01/16 10:11:13;;;;;;;1.27;0.65;;;5.80;94.80;;;;;;5075576;28;20448;-74
2023/01/16 10:14:09;;;;;;;0.52;0.22;;;5.80;94.70;;;;;;5075638;28;20016;-74
2023/01/16 10:16:43;;;;;;;1.08;0.20;;;5.80;94.90;;;;;;5032376;28;20032;-74
2023/01/16 10:19:15;;;;;;;0.77;0.57;;;5.90;95.00;;;;;;5093484;28;20035;-74
2023/01/16 10:22:12;;;;;;;2.15;0.40;;;5.90;94.90;;;;;;5093197;28;20048;-74
2023/01/16 10:24:53;;;;;;;1.25;0.80;;;5.90;94.90;;;;;;5093254;28;20075;-74
2023/01/16 10:27:28;;;;;;;1.90;0.82;;;5.80;95.20;;;;;;5093247;28;20029;-74
2023/01/16 10:30:01;;;;;;;0.60;0.32;;;5.90;95.20;;;;;;5075358;28;20024;-74
2023/01/16 10:32:32;;;;;;;0.47;0.45;;;5.90;94.90;;;;;;5075441;28;20036;-75
2023/01/16 10:35:16;;;;;;;0.90;0.70;;;5.90;95.10;;;;;;5093193;28;20032;-75
2023/01/16 10:37:44;;;;;;;0.88;0.50;;;6.00;95.00;;;;;;5093167;28;20028;-74
2023/01/16 10:40:15;;;;;;;1.67;1.00;;;6.00;95.10;;;;;;5058705;28;20039;-74
2023/01/16 10:51:02;;;;;;;1.40;0.77;;;6.10;95.10;;;;;;5093207;28;20381;-74
2023/01/16 10:53:28;;;;;;;1.25;0.75;;;6.10;95.10;;;;;;5093138;28;20040;-75
2023/01/16 10:55:55;;;;;;;1.17;0.60;;;6.10;94.90;;;;;;5092978;28;20016;-74
2023/01/16 10:58:26;;;;;;;1.33;0.68;;;6.10;94.90;;;;;;5092966;28;20071;-74
2023/01/16 11:01:00;;;;;;;2.88;0.85;;;6.10;95.10;;;;;;5092916;28;20021;-74
2023/01/16 11:03:40;;;;;;;1.02;0.57;;;6.20;94.90;;;;;;5075826;28;20048;-74
2023/01/16 11:06:25;;;;;;;1.65;0.77;;;6.20;94.80;;;;;;5096770;28;20489;-74
2023/01/16 11:09:03;;;;;;;2.17;1.10;;;6.20;94.90;;;;;;5096702;28;20039;-74
2023/01/16 11:20:29;;;;;;;0.85;0.50;;;6.30;94.20;;;;;;5096749;28;20040;-75
2023/01/16 11:23:03;;;;;;;0.20;0.20;;;6.20;94.10;;;;;;5096294;28;20055;-74
2023/01/16 11:25:30;;;;;;;0.93;0.40;;;6.20;93.70;;;;;;5078674;28;20032;-75
2023/01/16 11:28:02;;;;;;;0.47;0.38;;;6.20;93.80;;;;;;5078997;28;20024;-74
2023/01/16 11:30:44;;;;;;;1.60;0.38;;;6.20;93.60;;;;;;5096277;28;20024;-74
2023/01/16 11:33:25;;;;;;;2.08;0.40;;;6.30;93.70;;;;;;5096331;28;20021;-74
2023/01/16 11:35:57;;;;;;;1.85;0.47;;;6.20;93.60;;;;;;5078561;28;20474;-74
2023/01/16 11:38:26;;;;;;;0.93;0.50;;;6.30;93.80;;;;;;5096248;28;20021;-74
2023/01/16 11:40:56;;;;;;;0.95;0.70;;;6.30;93.40;;;;;;5096295;28;20017;-74
2023/01/16 11:46:27;;;;;;;2.20;0.60;;;6.30;93.50;;;;;;5096334;28;20059;-75
2023/01/16 11:48:54;;;;;;;0.30;0.20;;;6.40;93.30;;;;;;5095989;28;20055;-74
2023/01/16 11:51:23;;;;;;;0.75;0.52;;;6.40;93.40;;;;;;5078119;28;20029;-74
2023/01/16 11:53:51;;;;;;;1.55;0.73;;;6.40;93.40;;;;;;5095855;28;20077;-75
2023/01/16 11:56:29;;;;;;;0.65;0.20;;;6.40;93.30;;;;;;5095857;28;20025;-75
2023/01/16 11:59:18;;;;;;;1.48;0.30;;;6.40;93.10;;;;;;5095853;28;20021;-75
2023/01/16 12:02:18;;;;;;;0.70;0.45;;;6.50;93.00;;;;;;5095967;28;20482;-74
2023/01/16 12:08:20;;;;;;;0.68;0.20;;;6.50;93.00;;;;;;5095636;28;20039;-74
2023/01/16 12:10:57;;;;;;;1.75;0.30;;;6.60;93.00;;;;;;5095605;28;20046;-74
2023/01/16 12:16:43;;;;;;;1.65;0.50;;;6.60;92.70;;;;;;5095009;28;20058;-74
2023/01/16 12:19:46;;;;;;;0.28;0.28;;;6.60;92.70;;;;;;5077044;28;20048;-74
2023/01/16 12:22:39;;;;;;;0.43;0.30;;;6.70;92.40;;;;;;5095201;28;20405;-74
2023/01/16 12:25:25;;;;;;;0.43;0.30;;;6.70;92.30;;;;;;5095376;28;20025;-74
2023/01/16 12:28:27;;;;;;;0.30;0.30;;;6.70;92.30;;;;;;5095335;28;20032;-74
2023/01/16 12:33:57;;;;;;;0.63;0.50;;;6.70;92.00;;;;;;5095261;28;20029;-74
2023/01/16 12:36:42;;;;;;;0.15;0.15;;;6.70;92.30;;;;;;5077482;28;20171;-75
2023/01/16 12:39:24;;;;;;;0.75;0.40;;;6.80;92.50;;;;;;5095072;28;20032;-74
2023/01/16 12:45:11;;;;;;;0.68;0.25;;;6.80;92.30;;;;;;5095224;28;20059;-75
2023/01/16 12:47:53;;;;;;;0.57;0.30;;;6.80;92.40;;;;;;5095085;28;20036;-74
2023/01/16 12:50:24;;;;;;;1.05;0.40;;;6.80;92.60;;;;;;5077020;28;20024;-74
2023/01/16 12:53:18;;;;;;;0.77;0.20;;;6.80;92.10;;;;;;5077076;28;20510;-74
2023/01/16 12:56:02;;;;;;;0.70;0.30;;;6.80;92.30;;;;;;5094689;28;20031;-75
2023/01/16 12:58:32;;;;;;;1.08;0.20;;;6.80;92.50;;;;;;5094724;28;20027;-74
2023/01/16 13:01:16;;;;;;;1.63;0.28;;;6.80;92.50;;;;;;5076901;28;20042;-74
2023/01/16 13:03:58;;;;;;;0.85;0.28;;;6.80;92.80;;;;;;5094577;28;20029;-74
2023/01/16 13:06:50;;;;;;;0.65;0.28;;;6.80;92.30;;;;;;5094508;28;20040;-74
2023/01/16 13:09:36;;;;;;;1.35;0.40;;;6.80;92.60;;;;;;5094512;28;20031;-74
2023/01/16 13:15:11;;;;;;;0.40;0.30;;;6.70;92.80;;;;;;5094622;28;20039;-74
2023/01/16 13:18:00;;;;;;;0.50;0.40;;;6.60;93.10;;;;;;5094333;28;20080;-74
2023/01/16 13:20:26;;;;;;;0.30;0.10;;;6.60;93.50;;;;;;5093572;28;20041;-74
2023/01/16 13:22:57;;;;;;;2.47;0.38;;;6.60;93.30;;;;;;5076355;28;20061;-74
2023/01/16 13:25:33;;;;;;;1.27;0.32;;;6.60;93.60;;;;;;5076473;28;20096;-74
2023/01/16 13:28:18;;;;;;;0.32;0.32;;;6.60;93.80;;;;;;5093124;28;20024;-74
2023/01/16 13:30:43;;;;;;;1.23;0.28;;;6.60;94.20;;;;;;5076372;28;20025;-74
2023/01/16 13:33:13;;;;;;;0.63;0.40;;;6.60;94.40;;;;;;5093987;28;20031;-74
2023/01/16 13:35:51;;;;;;;0.77;0.40;;;6.60;94.40;;;;;;5093890;28;20024;-74
2023/01/16 13:38:36;;;;;;;0.95;0.50;;;6.60;94.70;;;;;;5076220;28;20032;-74
2023/01/16 13:41:27;;;;;;;0.75;0.40;;;6.60;94.40;;;;;;5076093;28;20028;-74
2023/01/16 13:47:04;;;;;;;0.85;0.40;;;6.60;94.90;;;;;;5094049;28;20035;-74
2023/01/16 13:49:30;;;;;;;0.65;0.38;;;6.60;94.80;;;;;;5076047;28;20038;-74
2023/01/16 13:51:57;;;;;;;0.98;0.50;;;6.50;94.90;;;;;;5075905;28;20029;-74
2023/01/16 13:54:36;;;;;;;0.52;0.32;;;6.60;94.90;;;;;;5093606;28;20029;-74
2023/01/16 13:57:08;;;;;;;1.80;1.30;;;6.60;94.70;;;;;;5075962;28;20025;-74
2023/01/16 13:59:57;;;;;;;2.13;0.32;;;6.60;95.00;;;;;;5075911;28;20084;-74
2023/01/16 14:02:39;;;;;;;1.35;0.73;;;6.60;94.90;;;;;;5093620;28;20054;-74
2023/01/16 14:05:16;;;;;;;0.57;0.40;;;6.60;94.90;;;;;;5093542;28;20046;-74
2023/01/16 14:11:03;;;;;;;1.15;0.75;;;6.60;94.80;;;;;;5093590;28;20031;-74
2023/01/16 14:13:34;;;;;;;0.65;0.43;;;6.60;94.80;;;;;;5093429;28;20032;-75
2023/01/16 14:16:35;;;;;;;2.80;0.77;;;6.60;94.70;;;;;;5075602;28;20044;-74
2023/01/16 14:19:22;;;;;;;3.78;0.57;;;6.70;94.60;;;;;;5093482;28;20025;-74
2023/01/16 14:24:42;;;;;;;2.00;0.45;;;6.60;94.90;;;;;;5093417;28;20032;-74
2023/01/16 14:27:21;;;;;;;1.00;0.82;;;6.60;95.00;;;;;;5075520;28;20058;-74
2023/01/16 14:29:50;;;;;;;0.95;0.40;;;6.60;95.00;;;;;;5075382;28;20120;-74
2023/01/16 14:32:23;;;;;;;1.27;0.63;;;6.60;95.20;;;;;;5075436;28;20028;-74
2023/01/16 14:34:54;;;;;;;1.45;0.80;;;6.60;95.30;;;;;;5075580;28;20021;-74
2023/01/16 14:37:21;;;;;;;3.10;1.25;;;6.60;95.30;;;;;;5093188;28;20017;-74
2023/01/16 14:39:56;;;;;;;1.90;0.88;;;6.60;95.40;;;;;;5096107;28;20032;-74
2023/01/16 14:57:13;;;;;;;4.43;1.92;;;6.60;96.00;;;;;;5097290;28;20044;-74
2023/01/16 15:00:02;;;;;;;6.97;2.53;;;6.60;96.30;;;;;;5079205;28;20029;-74